createdAt,value
2018-07-22T00:00:13.673Z,96628.56
2018-07-22T00:02:42.406Z,96623.87
2018-07-22T00:05:11.081Z,96623.00
2018-07-22T00:07:39.861Z,96611.55
2018-07-22T00:10:19.277Z,96602.97
2018-07-22T00:12:47.886Z,96607.25
2018-07-22T00:15:16.566Z,96599.58
2018-07-22T00:17:45.336Z,96597.80
2018-07-22T00:20:14.112Z,96605.06
2018-07-22T00:22:42.944Z,96597.04
2018-07-22T00:25:11.683Z,96597.52
2018-07-22T00:27:40.405Z,96597.56
2018-07-22T00:30:10.016Z,96600.51
2018-07-22T00:32:40.103Z,96603.53
2018-07-22T00:35:09.099Z,96597.17
2018-07-22T00:37:38.139Z,96596.34
2018-07-22T00:40:07.652Z,96590.42
2018-07-22T00:42:36.428Z,96591.25
2018-07-22T00:45:05.422Z,96590.50
2018-07-22T00:47:34.124Z,96595.55
2018-07-22T00:50:02.875Z,96590.50
2018-07-22T00:52:31.512Z,96587.08
2018-07-22T00:55:00.326Z,96600.23
2018-07-22T00:57:29.062Z,96591.81
2018-07-22T00:59:57.750Z,96589.70
2018-07-22T01:02:26.446Z,96593.56
2018-07-22T01:04:55.022Z,96593.17
2018-07-22T01:07:23.810Z,96589.27
2018-07-22T01:09:52.397Z,96586.25
2018-07-22T01:12:21.241Z,96587.13
2018-07-22T01:14:50.134Z,96583.34
2018-07-22T01:17:18.903Z,96583.70
2018-07-22T01:19:47.544Z,96594.98
2018-07-22T01:22:16.371Z,96597.56
2018-07-22T01:24:45.238Z,96591.16
2018-07-22T01:27:14.066Z,96599.16
2018-07-22T01:29:42.676Z,96597.56
2018-07-22T01:32:11.690Z,96605.55
2018-07-22T01:34:40.312Z,96610.64
2018-07-22T01:37:09.049Z,96612.70
2018-07-22T01:39:37.696Z,96618.14
2018-07-22T01:42:06.396Z,96617.97
2018-07-22T01:44:35.063Z,96628.52
2018-07-22T01:47:03.736Z,96628.52
2018-07-22T01:49:32.332Z,96632.20
2018-07-22T01:52:00.998Z,96626.25
2018-07-22T01:54:29.684Z,96632.52
2018-07-22T01:56:58.527Z,96643.95
2018-07-22T01:59:27.214Z,96646.02
2018-07-22T02:01:55.928Z,96642.51
2018-07-22T02:04:24.667Z,96633.97
2018-07-22T02:06:53.400Z,96630.55
2018-07-22T02:09:22.062Z,96627.96
2018-07-22T02:11:50.987Z,96617.80
2018-07-22T02:14:19.842Z,96628.92
2018-07-22T02:16:48.528Z,96631.07
2018-07-22T02:19:17.209Z,96634.05
2018-07-22T02:21:46.107Z,96628.44
2018-07-22T02:24:14.795Z,96637.34
2018-07-22T02:26:43.659Z,96637.77
2018-07-22T02:29:12.386Z,96643.16
2018-07-22T02:31:41.013Z,96638.87
2018-07-22T02:34:09.827Z,96632.52
2018-07-22T02:36:38.805Z,96632.91
2018-07-22T02:39:09.956Z,96628.70
2018-07-22T02:41:38.841Z,96629.09
2018-07-22T02:44:07.630Z,96631.89
2018-07-22T02:46:37.675Z,96631.02
2018-07-22T02:49:07.458Z,96627.94
2018-07-22T02:51:37.518Z,96629.21
2018-07-22T02:54:06.300Z,96627.20
2018-07-22T02:56:35.196Z,96633.07
2018-07-22T02:59:04.835Z,96631.80
2018-07-22T03:01:36.890Z,96642.31
2018-07-22T03:04:06.484Z,96632.16
2018-07-22T03:06:36.252Z,96630.84
2018-07-22T03:09:06.583Z,96629.38
2018-07-22T03:11:35.377Z,96625.08
2018-07-22T03:14:04.221Z,96626.80
2018-07-22T03:16:33.137Z,96629.73
2018-07-22T03:19:01.852Z,96631.39
2018-07-22T03:21:30.660Z,96639.27
2018-07-22T03:23:59.577Z,96631.64
2018-07-22T03:26:28.294Z,96627.44
2018-07-22T03:28:57.240Z,96630.47
2018-07-22T03:31:26.022Z,96629.59
2018-07-22T03:33:55.217Z,96632.96
2018-07-22T03:36:24.126Z,96633.79
2018-07-22T03:38:53.045Z,96644.39
2018-07-22T03:41:21.775Z,96644.00
2018-07-22T03:43:50.362Z,96646.94
2018-07-22T03:46:19.455Z,96646.98
2018-07-22T03:48:48.166Z,96642.30
2018-07-22T03:51:17.658Z,96640.93
2018-07-22T03:53:46.635Z,96639.36
2018-07-22T03:56:15.457Z,96639.84
2018-07-22T03:58:44.352Z,96644.93
2018-07-22T04:01:13.154Z,96650.93
2018-07-22T04:03:42.030Z,96655.97
2018-07-22T04:06:12.027Z,96661.14
2018-07-22T04:08:40.817Z,96659.05
2018-07-22T04:11:09.564Z,96665.44
2018-07-22T04:13:38.385Z,96671.49
2018-07-22T04:16:07.183Z,96667.73
2018-07-22T04:18:40.162Z,96667.81
2018-07-22T04:21:08.992Z,96662.83
2018-07-22T04:23:37.765Z,96663.80
2018-07-22T04:26:06.913Z,96664.67
2018-07-22T04:28:35.572Z,96676.98
2018-07-22T04:31:04.279Z,96668.28
2018-07-22T04:33:33.200Z,96671.88
2018-07-22T04:36:01.843Z,96676.65
2018-07-22T04:38:30.517Z,96681.09
2018-07-22T04:40:59.319Z,96686.30
2018-07-22T04:43:28.064Z,96700.86
2018-07-22T04:45:56.775Z,96709.50
2018-07-22T04:48:25.515Z,96717.95
2018-07-22T04:50:54.568Z,96713.80
2018-07-22T04:53:23.347Z,96725.52
2018-07-22T04:55:52.334Z,96735.94
2018-07-22T04:58:20.977Z,96736.55
2018-07-22T05:00:51.014Z,96754.02
2018-07-22T05:03:21.198Z,96770.64
2018-07-22T05:05:50.154Z,96775.55
2018-07-22T05:08:18.891Z,96783.00
2018-07-22T05:10:47.731Z,96795.47
2018-07-22T05:13:16.585Z,96809.08
2018-07-22T05:15:45.315Z,96817.41
2018-07-22T05:18:14.176Z,96832.19
2018-07-22T05:20:42.937Z,96843.52
2018-07-22T05:23:11.628Z,96857.22
2018-07-22T05:25:40.562Z,96863.19
2018-07-22T05:28:09.354Z,96857.48
2018-07-22T05:30:37.981Z,96874.17
2018-07-22T05:33:06.864Z,96865.17
2018-07-22T05:35:35.640Z,96861.48
2018-07-22T05:38:04.381Z,96882.45
2018-07-22T05:40:34.303Z,96899.03
2018-07-22T05:43:03.029Z,96911.26
2018-07-22T05:45:31.918Z,96918.92
2018-07-22T05:48:00.683Z,96937.33
2018-07-22T05:50:30.224Z,96956.66
2018-07-22T05:52:59.353Z,96966.39
2018-07-22T05:55:28.113Z,96966.84
2018-07-22T05:57:56.927Z,96970.41
2018-07-22T06:00:25.725Z,96987.98
2018-07-22T06:02:54.462Z,97000.08
2018-07-22T06:05:23.206Z,97007.03
2018-07-22T06:07:51.965Z,97009.73
2018-07-22T06:10:20.637Z,97021.94
2018-07-22T06:12:49.406Z,97027.80
2018-07-22T06:15:18.171Z,97040.84
2018-07-22T06:17:46.864Z,97038.13
2018-07-22T06:20:15.525Z,97056.08
2018-07-22T06:22:44.275Z,97051.02
2018-07-22T06:25:13.065Z,97054.56
2018-07-22T06:27:41.925Z,97056.67
2018-07-22T06:30:10.535Z,97068.19
2018-07-22T06:32:39.241Z,97064.28
2018-07-22T06:35:08.302Z,97088.60
2018-07-22T06:37:36.985Z,97087.77
2018-07-22T06:40:06.305Z,97089.19
2018-07-22T06:42:35.008Z,97100.70
2018-07-22T06:45:03.952Z,97101.25
2018-07-22T06:47:32.728Z,97100.36
2018-07-22T06:50:02.660Z,97111.55
2018-07-22T06:52:31.538Z,97111.77
2018-07-22T06:55:00.205Z,97111.19
2018-07-22T06:57:29.640Z,97115.41
2018-07-22T06:59:58.296Z,97116.47
2018-07-22T07:02:27.160Z,97111.09
2018-07-22T07:04:57.130Z,97116.16
2018-07-22T07:07:25.742Z,97114.29
2018-07-22T07:09:54.467Z,97119.21
2018-07-22T07:12:23.067Z,97119.55
2018-07-22T07:14:51.710Z,97117.25
2018-07-22T07:17:20.282Z,97120.83
2018-07-22T07:19:48.820Z,97121.70
2018-07-22T07:22:17.453Z,97115.82
2018-07-22T07:24:46.017Z,97120.42
2018-07-22T07:27:14.566Z,97117.53
2018-07-22T07:29:43.093Z,97123.08
2018-07-22T07:32:11.613Z,97123.28
2018-07-22T07:34:40.224Z,97127.23
2018-07-22T07:37:08.805Z,97123.73
2018-07-22T07:39:37.372Z,97125.50
2018-07-22T07:42:05.914Z,97127.84
2018-07-22T07:44:34.441Z,97126.58
2018-07-22T07:47:03.013Z,97127.13
2018-07-22T07:49:31.566Z,97129.13
2018-07-22T07:52:00.164Z,97127.52
2018-07-22T07:54:28.767Z,97131.72
2018-07-22T07:56:57.327Z,97131.03
2018-07-22T07:59:25.890Z,97134.35
2018-07-22T08:01:54.426Z,97131.94
2018-07-22T08:04:22.992Z,97128.10
2018-07-22T08:06:51.526Z,97129.53
2018-07-22T08:09:20.055Z,97128.91
2018-07-22T08:11:48.705Z,97126.68
2018-07-22T08:14:17.201Z,97108.05
2018-07-22T08:16:45.773Z,97107.80
2018-07-22T08:19:14.383Z,97117.02
2018-07-22T08:21:43.046Z,97127.30
2018-07-22T08:24:11.470Z,97124.02
2018-07-22T08:26:40.053Z,97129.17
2018-07-22T08:29:29.222Z,97129.48
2018-07-22T08:31:58.052Z,97137.09
2018-07-22T08:34:26.631Z,97136.84
2018-07-22T08:36:55.190Z,97133.59
2018-07-22T08:39:25.023Z,97136.75
2018-07-22T08:41:54.258Z,97138.60
2018-07-22T08:44:23.048Z,97139.38
2018-07-22T08:46:51.628Z,97140.30
2018-07-22T08:49:20.166Z,97130.95
2018-07-22T08:51:48.730Z,97131.53
2018-07-22T08:54:17.309Z,97142.14
2018-07-22T08:56:45.861Z,97144.86
2018-07-22T08:59:14.435Z,97142.82
2018-07-22T09:01:42.963Z,97147.99
2018-07-22T09:04:11.488Z,97149.25
2018-07-22T09:06:40.038Z,97155.73
2018-07-22T09:09:10.186Z,97156.19
2018-07-22T09:11:40.016Z,97165.37
2018-07-22T09:14:10.439Z,97169.61
2018-07-22T09:16:39.267Z,97169.50
2018-07-22T09:19:08.101Z,97176.22
2018-07-22T09:21:37.693Z,97165.14
2018-07-22T09:24:06.433Z,97168.23
2018-07-22T09:26:35.182Z,97171.77
2018-07-22T09:29:03.951Z,97171.41
2018-07-22T09:31:33.036Z,97172.83
2018-07-22T09:34:01.867Z,97173.30
2018-07-22T09:36:30.709Z,97171.67
2018-07-22T09:38:59.335Z,97179.23
2018-07-22T09:41:29.090Z,97179.08
2018-07-22T09:43:57.788Z,97180.52
2018-07-22T09:46:29.292Z,97180.19
2018-07-22T09:48:58.132Z,97183.40
2018-07-22T09:51:26.909Z,97181.42
2018-07-22T09:53:56.331Z,97175.67
2018-07-22T09:56:25.011Z,97170.80
2018-07-22T09:59:06.278Z,97170.17
2018-07-22T10:01:35.573Z,97165.02
2018-07-22T10:04:04.528Z,97170.69
2018-07-22T10:06:33.525Z,97176.88
2018-07-22T10:09:02.446Z,97166.17
2018-07-22T10:11:33.228Z,97174.72
2018-07-22T10:14:02.877Z,97252.81
2018-07-22T10:16:32.085Z,97184.09
2018-07-22T10:19:01.458Z,97181.94
2018-07-22T10:21:30.070Z,97180.91
2018-07-22T10:23:58.740Z,97168.48
2018-07-22T10:26:27.408Z,97174.35
2018-07-22T10:28:55.999Z,97175.47
2018-07-22T10:31:24.720Z,97176.00
2018-07-22T10:33:53.895Z,97184.39
2018-07-22T10:36:22.673Z,97184.81
2018-07-22T10:38:51.327Z,97181.22
2018-07-22T10:41:19.900Z,97182.53
2018-07-22T10:43:48.563Z,97188.39
2018-07-22T10:46:17.759Z,97191.47
2018-07-22T10:48:46.319Z,97189.09
2018-07-22T10:51:14.909Z,97189.66
2018-07-22T10:53:43.442Z,97194.55
2018-07-22T10:56:11.971Z,97185.80
2018-07-22T10:58:40.726Z,97188.03
2018-07-22T11:01:09.275Z,97191.58
2018-07-22T11:03:37.857Z,97191.52
2018-07-22T11:06:06.432Z,97184.50
2018-07-22T11:08:35.088Z,97193.12
2018-07-22T11:11:03.601Z,97199.18
2018-07-22T11:13:32.317Z,97201.16
2018-07-22T11:16:00.838Z,97195.38
2018-07-22T11:18:29.865Z,97194.35
2018-07-22T11:20:58.828Z,97195.79
2018-07-22T11:23:27.672Z,97196.66
2018-07-22T11:25:56.572Z,97191.69
2018-07-22T11:28:26.648Z,97198.27
2018-07-22T11:30:57.269Z,97200.69
2018-07-22T11:33:26.859Z,96193.57
2018-07-22T11:35:58.982Z,97201.81
2018-07-22T11:38:28.177Z,97200.56
2018-07-22T11:40:57.772Z,97193.42
2018-07-22T11:43:26.702Z,97193.66
2018-07-22T11:45:56.074Z,97198.64
2018-07-22T11:48:25.165Z,97197.61
2018-07-22T11:50:54.661Z,97193.20
2018-07-22T11:53:23.841Z,97194.05
2018-07-22T11:55:52.648Z,97192.91
2018-07-22T11:58:21.441Z,97196.81
2018-07-22T12:00:50.736Z,97191.15
2018-07-22T12:03:21.430Z,97195.78
2018-07-22T12:05:50.090Z,97196.00
2018-07-22T12:08:18.928Z,97193.64
2018-07-22T12:10:49.506Z,97192.44
2018-07-22T12:13:21.320Z,97193.54
2018-07-22T12:15:52.608Z,97189.39
2018-07-22T12:18:21.205Z,97187.63
2018-07-22T12:20:49.697Z,97192.12
2018-07-22T12:23:18.262Z,97189.88
2018-07-22T12:25:46.806Z,97191.27
2018-07-22T12:28:15.378Z,97192.48
2018-07-22T12:30:43.865Z,97198.95
2018-07-22T12:33:12.374Z,97186.03
2018-07-22T12:35:40.897Z,97193.34
2018-07-22T12:38:09.442Z,97183.84
2018-07-22T12:40:38.012Z,97188.37
2018-07-22T12:43:06.527Z,97191.55
2018-07-22T12:45:35.073Z,97192.55
2018-07-22T12:48:03.635Z,97185.92
2018-07-22T12:50:32.147Z,97186.00
2018-07-22T12:53:00.694Z,97185.88
2018-07-22T12:55:29.272Z,97185.09
2018-07-22T12:57:57.815Z,97180.61
2018-07-22T13:00:26.498Z,97187.49
2018-07-22T13:02:55.244Z,97184.64
2018-07-22T13:05:23.781Z,97179.33
2018-07-22T13:07:52.430Z,97084.50
2018-07-22T13:10:21.212Z,97184.83
2018-07-22T13:12:49.846Z,97182.09
2018-07-22T13:15:18.453Z,97196.10
2018-07-22T13:17:47.107Z,97188.87
2018-07-22T13:20:15.749Z,97200.30
2018-07-22T13:22:44.382Z,97194.61
2018-07-22T13:25:13.016Z,97194.43
2018-07-22T13:27:41.696Z,97188.10
2018-07-22T13:30:10.309Z,97171.30
2018-07-22T13:32:38.902Z,97156.69
2018-07-22T13:35:07.458Z,97155.86
2018-07-22T13:37:36.036Z,97146.51
2018-07-22T13:40:04.973Z,97136.17
2018-07-22T13:42:33.528Z,97148.36
2018-07-22T13:45:02.045Z,97151.72
2018-07-22T13:47:30.662Z,97149.67
2018-07-22T13:49:59.247Z,97154.46
2018-07-22T13:52:27.877Z,97156.61
2018-07-22T13:54:56.439Z,97164.26
2018-07-22T13:57:25.166Z,97160.25
2018-07-22T13:59:53.710Z,97156.58
2018-07-22T14:02:22.305Z,97160.95
2018-07-22T14:04:50.851Z,97182.56
2018-07-22T14:07:19.529Z,97178.38
2018-07-22T14:09:48.109Z,97179.09
2018-07-22T14:12:16.668Z,97190.88
2018-07-22T14:14:45.249Z,97200.83
2018-07-22T14:17:13.780Z,97198.55
2018-07-22T14:19:42.373Z,97191.98
2018-07-22T14:22:10.998Z,97192.60
2018-07-22T14:24:39.620Z,97181.30
2018-07-22T14:27:08.284Z,97197.12
2018-07-22T14:29:36.825Z,97196.31
2018-07-22T14:32:05.454Z,97191.09
2018-07-22T14:34:34.004Z,97192.60
2018-07-22T14:37:02.590Z,97189.14
2018-07-22T14:39:31.234Z,97195.26
2018-07-22T14:41:59.763Z,97190.30
2018-07-22T14:44:28.336Z,97197.92
2018-07-22T14:46:56.938Z,97202.30
2018-07-22T14:49:25.543Z,97199.10
2018-07-22T14:51:54.109Z,97188.66
2018-07-22T14:54:22.691Z,97179.43
2018-07-22T14:56:51.298Z,97177.86
2018-07-22T14:59:20.146Z,97176.93
2018-07-22T15:01:48.757Z,97176.70
2018-07-22T15:04:17.337Z,97175.80
2018-07-22T15:06:45.891Z,97176.23
2018-07-22T15:09:14.439Z,97179.77
2018-07-22T15:11:42.982Z,97176.03
2018-07-22T15:14:11.513Z,97177.84
2018-07-22T15:16:40.219Z,97187.06
2018-07-22T15:19:08.737Z,97191.16
2018-07-22T15:21:37.268Z,97196.98
2018-07-22T15:24:05.857Z,97189.63
2018-07-22T15:26:34.369Z,97197.64
2018-07-22T15:29:02.993Z,97189.00
2018-07-22T15:31:31.603Z,97196.23
2018-07-22T15:34:00.131Z,97190.64
2018-07-22T15:36:28.753Z,97186.24
2018-07-22T15:38:57.273Z,97187.25
2018-07-22T15:41:25.891Z,97184.02
2018-07-22T15:43:54.489Z,97177.62
2018-07-22T15:46:23.099Z,97177.53
2018-07-22T15:48:51.756Z,97178.28
2018-07-22T15:51:20.458Z,97170.69
2018-07-22T15:53:49.037Z,97166.75
2018-07-22T15:56:17.791Z,97169.07
2018-07-22T15:58:46.339Z,97171.02
2018-07-22T16:01:14.906Z,97172.61
2018-07-22T16:03:43.438Z,97182.13
2018-07-22T16:06:12.005Z,97181.46
2018-07-22T16:08:40.773Z,97177.08
2018-07-22T16:11:09.313Z,97177.79
2018-07-22T16:13:37.864Z,97180.95
2018-07-22T16:16:06.489Z,97181.95
2018-07-22T16:18:35.026Z,97179.20
2018-07-22T16:21:03.551Z,97188.77
2018-07-22T16:23:32.131Z,97181.76
2018-07-22T16:26:00.696Z,97179.23
2018-07-22T16:28:29.232Z,97179.88
2018-07-22T16:30:57.843Z,97185.76
2018-07-22T16:33:26.455Z,97178.66
2018-07-22T16:35:55.063Z,97179.77
2018-07-22T16:38:23.637Z,97184.11
2018-07-22T16:40:52.257Z,97188.73
2018-07-22T16:43:20.870Z,97187.02
2018-07-22T16:45:49.590Z,97185.08
2018-07-22T16:48:18.129Z,97187.19
2018-07-22T16:50:46.708Z,97185.91
2018-07-22T16:53:15.325Z,97186.28
2018-07-22T16:55:43.942Z,97182.30
2018-07-22T16:58:12.507Z,97184.53
2018-07-22T17:00:41.060Z,97176.89
2018-07-22T17:03:09.666Z,97178.68
2018-07-22T17:05:38.394Z,97180.72
2018-07-22T17:08:06.949Z,97179.73
2018-07-22T17:10:35.495Z,97182.13
2018-07-22T17:13:04.017Z,97173.36
2018-07-22T17:15:32.625Z,97173.08
2018-07-22T17:18:01.234Z,97163.91
2018-07-22T17:20:29.802Z,97149.27
2018-07-22T17:22:58.409Z,97147.78
2018-07-22T17:25:26.930Z,97154.48
2018-07-22T17:27:56.508Z,97163.34
2018-07-22T17:30:25.208Z,97170.20
2018-07-22T17:32:53.744Z,97172.05
2018-07-22T17:35:22.261Z,97179.09
2018-07-22T17:37:50.765Z,97185.25
2018-07-22T17:40:19.334Z,97185.17
2018-07-22T17:42:47.874Z,97185.86
2018-07-22T17:45:16.460Z,97185.09
2018-07-22T17:47:45.015Z,97187.49
2018-07-22T17:50:13.593Z,97186.37
2018-07-22T17:52:42.171Z,97182.05
2018-07-22T17:55:10.777Z,97169.68
2018-07-22T17:57:39.480Z,97152.05
2018-07-22T18:00:08.457Z,97161.33
2018-07-22T18:02:38.097Z,97150.73
2018-07-22T18:05:06.748Z,97168.45
2018-07-22T18:07:35.270Z,97181.78
2018-07-22T18:10:03.868Z,97173.37
2018-07-22T18:12:32.433Z,97175.00
2018-07-22T18:15:07.406Z,97173.33
2018-07-22T18:17:36.005Z,97170.78
2018-07-22T18:20:04.530Z,97155.59
2018-07-22T18:22:33.121Z,97152.05
2018-07-22T18:25:01.758Z,97157.50
2018-07-22T18:27:30.413Z,97161.33
2018-07-22T18:29:58.944Z,97149.38
2018-07-22T18:32:27.448Z,97139.08
2018-07-22T18:34:55.995Z,97141.72
2018-07-22T18:37:24.540Z,97139.73
2018-07-22T18:39:53.266Z,97152.92
2018-07-22T18:42:21.825Z,97138.42
2018-07-22T18:44:50.365Z,97129.48
2018-07-22T18:47:18.955Z,97139.42
2018-07-22T18:49:47.504Z,97127.50
2018-07-22T18:52:16.051Z,97112.11
2018-07-22T18:54:44.777Z,97111.23
2018-07-22T18:57:13.304Z,97115.89
2018-07-22T18:59:41.881Z,97105.37
2018-07-22T19:02:10.391Z,97093.58
2018-07-22T19:04:38.933Z,97085.66
2018-07-22T19:07:07.540Z,97105.31
2018-07-22T19:09:36.264Z,97098.40
2018-07-22T19:12:04.930Z,97071.89
2018-07-22T19:14:34.509Z,97070.88
2018-07-22T19:17:03.046Z,97060.73
2018-07-22T19:19:31.606Z,97058.87
2018-07-22T19:22:00.172Z,97037.53
2018-07-22T19:24:28.717Z,97032.97
2018-07-22T19:26:57.239Z,97040.31
2018-07-22T19:29:25.910Z,97043.75
2018-07-22T19:31:54.691Z,97023.92
2018-07-22T19:34:23.538Z,97029.05
2018-07-22T19:36:52.271Z,97017.94
2018-07-22T19:39:20.967Z,97016.41
2018-07-22T19:41:49.920Z,97003.20
2018-07-22T19:44:18.747Z,97002.22
2018-07-22T19:46:47.541Z,96991.51
2018-07-22T19:49:16.374Z,96994.92
2018-07-22T19:51:49.191Z,96976.34
2018-07-22T19:54:17.978Z,96960.94
2018-07-22T19:56:46.634Z,96964.95
2018-07-22T19:59:15.336Z,96983.55
2018-07-22T20:01:44.273Z,97003.65
2018-07-22T20:04:15.264Z,97014.41
2018-07-22T20:06:45.191Z,96996.45
2018-07-22T20:09:14.692Z,97013.87
2018-07-22T20:11:43.948Z,97027.03
2018-07-22T20:14:12.683Z,97023.66
2018-07-22T20:16:41.474Z,97019.84
2018-07-22T20:19:10.318Z,97015.23
2018-07-22T20:21:39.208Z,97015.34
2018-07-22T20:24:07.951Z,97020.48
2018-07-22T20:26:36.801Z,97018.43
2018-07-22T20:29:05.795Z,97024.02
2018-07-22T20:31:34.911Z,97038.98
2018-07-22T20:34:03.728Z,97034.92
2018-07-22T20:36:32.387Z,97034.55
2018-07-22T20:39:01.081Z,97040.52
2018-07-22T20:41:29.729Z,97031.25
2018-07-22T20:43:58.570Z,97037.52
2018-07-22T20:46:27.466Z,97028.03
2018-07-22T20:48:56.225Z,97015.11
2018-07-22T20:51:24.859Z,97003.21
2018-07-22T20:53:53.596Z,96989.17
2018-07-22T20:56:22.491Z,96989.95
2018-07-22T20:58:51.157Z,96996.20
2018-07-22T21:01:20.023Z,96981.63
2018-07-22T21:03:49.451Z,96972.18
2018-07-22T21:06:18.121Z,96967.87
2018-07-22T21:08:46.829Z,96963.08
2018-07-22T21:11:15.948Z,96952.77
2018-07-22T21:13:44.588Z,96956.14
2018-07-22T21:16:13.558Z,96951.00
2018-07-22T21:18:42.493Z,96950.52
2018-07-22T21:21:11.226Z,96951.50
2018-07-22T21:23:40.140Z,96945.91
2018-07-22T21:26:08.752Z,96951.89
2018-07-22T21:28:37.406Z,96951.05
2018-07-22T21:31:06.145Z,96954.13
2018-07-22T21:33:35.514Z,96956.77
2018-07-22T21:36:04.347Z,96969.20
2018-07-22T21:38:33.429Z,96973.01
2018-07-22T21:41:02.392Z,96973.85
2018-07-22T21:43:31.320Z,96976.88
2018-07-22T21:46:00.124Z,96976.50
2018-07-22T21:48:28.861Z,96981.23
2018-07-22T21:50:57.548Z,96984.61
2018-07-22T21:53:26.282Z,96982.06
2018-07-22T21:55:56.310Z,96978.64
2018-07-22T21:58:25.050Z,96966.22
2018-07-22T22:00:53.804Z,96967.05
2018-07-22T22:03:22.439Z,96957.74
2018-07-22T22:05:51.236Z,96959.86
2018-07-22T22:08:19.949Z,96953.92
2018-07-22T22:10:48.847Z,96945.37
2018-07-22T22:13:17.601Z,96944.45
2018-07-22T22:15:46.297Z,96944.39
2018-07-22T22:18:14.984Z,96933.30
2018-07-22T22:20:43.607Z,96938.38
2018-07-22T22:23:12.564Z,96935.80
2018-07-22T22:25:42.128Z,96940.83
2018-07-22T22:28:10.887Z,96937.81
2018-07-22T22:30:39.780Z,96935.64
2018-07-22T22:33:08.410Z,96931.83
2018-07-22T22:35:37.102Z,96929.98
2018-07-22T22:38:05.874Z,96923.13
2018-07-22T22:40:34.480Z,96927.77
2018-07-22T22:43:03.244Z,96921.36
2018-07-22T22:45:31.996Z,96916.17
2018-07-22T22:48:00.764Z,96904.25
2018-07-22T22:50:29.740Z,96904.20
2018-07-22T22:52:58.412Z,96904.15
2018-07-22T22:55:27.109Z,96906.20
2018-07-22T22:59:05.143Z,96904.05
2018-07-22T23:01:33.925Z,96903.55
2018-07-22T23:04:02.675Z,96902.62
2018-07-22T23:06:31.366Z,96900.52
2018-07-22T23:09:00.030Z,96901.84
2018-07-22T23:11:28.754Z,96902.28
2018-07-22T23:13:57.652Z,96902.67
2018-07-22T23:16:26.383Z,96900.96
2018-07-22T23:18:55.025Z,96902.67
2018-07-22T23:21:30.268Z,96902.28
2018-07-22T23:23:59.118Z,96908.09
2018-07-22T23:26:27.961Z,96903.80
2018-07-22T23:28:56.716Z,96905.89
2018-07-22T23:31:25.525Z,96899.59
2018-07-22T23:33:54.316Z,96895.28
2018-07-22T23:36:23.054Z,96894.85
2018-07-22T23:38:51.730Z,96889.37
2018-07-22T23:41:20.785Z,96895.73
2018-07-22T23:43:50.059Z,96895.67
2018-07-22T23:46:18.696Z,96893.58
2018-07-22T23:48:47.422Z,96890.09
2018-07-22T23:51:16.058Z,96889.17
2018-07-22T23:53:44.730Z,96892.59
2018-07-22T23:56:17.290Z,96886.33
2018-07-22T23:58:45.950Z,96890.30
